Aeroporto :
LOGIN :

Iscrizione | Disclaimer

   EN    FR    IT 

 










Sommario :    VFR   VFR Marginale   IFR   IFR Intensivo   IFR Molto Intensivo
Visibilità : 
Base nubi : 
>= 8 km
>= 3000ft
5 / 8 km
1000 / 3000 ft
1500m / 5 km
500 / 1000 ft
800 / 1500m
200 / 500 ft
< 800m
< 200 ft
Simboli :   Temporali  Nebbia  Neve Forte  Precipitazioni Forti  Vento > 20 kt
SIGMETs :   Varie  Temporali  Ghiacco  Turbolenza  Onda orograficha  Ceneri Vulcaniche






- Altitudine del aeroporto : 39 ft
- Codice IATA : ANR


EBAW - Anvers / Antwerpen Deurne

ULTIMO METAR :
  • 060920Z 24016G27KT 210V270 9999 SCT034 14/03 Q0999 NOSIG

METARs OBSOLETI :
  • 060850Z 24015KT 200V270 9999 SCT034 13/05 Q0999 BECMG 24016G27KT
  • 060820Z 23013KT 9999 FEW018 SCT028 13/05 Q0999 BECMG 24016G27KT
  • 060750Z 23012KT 200V270 9999 FEW018 SCT028 12/07 Q0999 BECMG 24016G27KT
  • 060720Z 22012KT 9999 SCT018 12/07 Q0999 BECMG 24016G27KT
  • 060650Z 22009KT 190V250 9999 FEW010 11/08 Q0999 BECMG 24016G27KT

TAF TAF EBAW
Valido dal 06 a 09 ore il 06 a 18 ore UTC


060810Z 0609/0618 24014KT 9999 SCT025
BECMG 0611/0613 24017G28KT



MetMap, La meteo Aeronautica in un colpo d'occhio ! - Copyright ORBIFLY Dicembre 2007 - Disclaimer

ORBIFLY MET'MAP TEAM :

Programmazione e sviluppo : Alexandra Zaïnal
Concezione : Baudouin d'Aumeries
Aiuto per la programmazione : Marc-Olivier Méhu
Supporto tecnico e logistico : Manuel Goepfert
Aiuto per la traduzione : Arnaldo La Scala

Contatto : metmap@orbifly.com




FONTI E CREDITI :

   NOAA